CheckWX is a tool to help pilots better visualize weather data.  It is not intended as a substitute for an official pre-flight weather briefing.

20:03:11 UTC

CYOY METAR
C J.H.L.(Joe) Lecomte) Heliport
Valcartier, Canada
Current

1 hour ago

CYOY 201900Z 12005KT 100V160 12SM FEW009 OVC012 01/M01 A2999 RMK SF2SC6 DA-1017FT SLP165
Observed
Nov-20 @ 19:00 UTC
Wind
  • 120° at 5 KTS
Visibility
12 SM
Flight Rules
MVFR
Cloud Levels
  • Few at 900' AGL
  • Overcast at 1,200' AGL
Temperature
C / 34°F
Dewpoint
-1°C / 30°F
Humidity
87%
Altimeter
29.99" Hg
Pressure
1015.62 hPa
Previous

2 hours ago

CYOY 201800Z 13004KT 100V160 15SM FEW009 OVC014 02/M01 A2998 RMK SF2SC6 DA-929FT SLP160
Observed
Nov-20 @ 18:00 UTC
Wind
  • 130° at 4 KTS
Visibility
15 SM
Flight Rules
MVFR
Cloud Levels
  • Few at 900' AGL
  • Overcast at 1,400' AGL
Temperature
C / 36°F
Dewpoint
-1°C / 30°F
Humidity
81%
Altimeter
29.98" Hg
Pressure
1015.22 hPa
Previous

3 hours ago

CYOY 201728Z 18003KT 090V210 15SM FEW009 OVC014 02/M00 A2997 RMK SF2SC6 DA-865FT SLP159
Observed
Nov-20 @ 17:28 UTC
Wind
  • 180° at 3 KTS
Visibility
15 SM
Flight Rules
MVFR
Cloud Levels
  • Few at 900' AGL
  • Overcast at 1,400' AGL
Temperature
C / 36°F
Dewpoint
C / 32°F
Humidity
87%
Altimeter
29.97" Hg
Pressure
1014.92 hPa